Latest Weather Observations for Mt Wellington

IDT60901

Issued at 1:35 pm EDT Thursday 27 November 2014 (issued every 10 minutes, with the page automatically refreshed every 10 minutes)

About weather observations | Map of Hobart area stations | Latest observations for Hobart area | Other Formats
Station Details ID: 094087 Name: MOUNT WELLINGTON Lat: -42.90 Lon: 147.24 Height: 1260.47 m
Data from the previous 72 hours. | See also: Recent months at Mt Wellington
Date/Time
EDT
Tmp

°C
App
Tmp
°C
Dew
Point
°C
Rel
Hum
%
Delta-T

°C
Wind Press
QNH
hPa
Press
MSL
hPa
Rain
since
9 am
mm
Dir
 
Spd
km/h
Gust
km/h
Spd
kts
Gust
kts
27/01:30pm 6.7 0.4 1.6 70 2.2 SW 24 39 13 21 - - 0.0
27/01:00pm 6.2 -0.5 1.5 72 2.0 WSW 26 39 14 21 - - 0.0
27/12:30pm 5.5 -1.2 1.4 75 1.8 WSW 26 35 14 19 - - 0.0
27/12:00pm 4.8 -1.5 1.5 79 1.4 WSW 24 37 13 20 - - 0.0
27/11:30am 4.6 -2.5 1.1 78 1.5 SW 28 41 15 22 - - 0.0
27/11:00am 4.0 -3.9 0.9 80 1.3 WSW 32 41 17 22 - - 0.0
27/10:30am 3.5 -3.6 1.2 85 1.0 WSW 28 41 15 22 - - 0.0
27/10:00am 3.8 -4.2 1.4 84 1.0 WSW 33 46 18 25 - - 0.0
27/09:30am 2.4 -5.8 0.3 86 0.9 SW 33 43 18 23 - - 0.0
27/09:00am 1.6 -6.7 -0.2 88 0.7 SSW 33 46 18 25 - - 2.0
27/08:30am 1.4 -6.3 -0.2 89 0.6 SSW 30 41 16 22 - - 2.0
27/08:00am 1.3 -7.4 -0.5 88 0.7 WSW 35 46 19 25 - - 2.0
27/07:30am 0.5 -10.0 -0.8 91 0.5 SW 44 59 24 32 - - 2.0
27/07:00am 0.5 -9.3 -0.5 93 0.4 WSW 41 50 22 27 - - 2.0
27/06:30am 0.0 -11.6 -0.7 95 0.3 SW 50 59 27 32 - - 2.0
27/06:00am -0.2 -11.0 -0.6 97 0.1 WSW 46 56 25 30 - - 2.0
27/05:30am -0.3 -10.6 -0.7 97 0.1 SW 43 50 23 27 - - 2.0
27/05:00am -0.3 -11.9 -1.0 95 0.3 WSW 50 63 27 34 - - 2.0
27/04:30am -0.4 -13.4 -1.2 94 0.3 WSW 57 70 31 38 - - 2.0
27/04:00am -0.4 -12.1 -1.4 93 0.4 SW 50 65 27 35 - - 2.0
27/03:30am -0.3 -10.2 -1.0 95 0.3 SW 41 57 22 31 - - 2.0
27/03:00am -0.2 -10.7 -1.2 93 0.4 WSW 44 57 24 31 - - 2.0
27/02:30am -0.2 -10.5 -0.9 95 0.3 WSW 43 61 23 33 - - 2.0
27/02:00am -0.1 -10.4 -0.8 95 0.3 SW 43 63 23 34 - - 2.0
27/01:30am 0.0 -9.9 -0.8 94 0.3 WSW 41 56 22 30 - - 2.0
27/01:02am 0.0 -9.9 -0.7 95 0.3 WSW 41 61 22 33 - - 2.0
27/01:00am 0.0 -10.3 -0.7 95 0.3 WSW 43 61 23 33 - - 2.0
27/12:57am 0.0 -9.9 -0.7 95 0.3 WSW 41 61 22 33 - - 2.0
27/12:30am -0.1 -11.3 -0.8 95 0.3 WSW 48 67 26 36 - - 2.0
27/12:03am 0.2 -10.6 -0.4 96 0.2 WSW 46 70 25 38 - - 2.0
27/12:00am 0.3 -10.5 -0.3 96 0.2 WSW 46 56 25 30 - - 2.0
 
Date/Time
EDT
Tmp

°C
App
Tmp
°C
Dew
Point
°C
Rel
Hum
%
Delta-T

°C
Wind Press
QNH
hPa
Press
MSL
hPa
Rain
since
9 am
mm
Dir
 
Spd
km/h
Gust
km/h
Spd
kts
Gust
kts
26/11:30pm 0.4 -10.7 -0.2 96 0.2 WSW 48 61 26 33 - - 2.0
26/11:00pm 0.3 -12.4 -0.5 94 0.3 WSW 56 65 30 35 - - 2.0
26/10:30pm 0.4 -11.5 -0.5 94 0.4 WSW 52 61 28 33 - - 2.0
26/10:00pm 0.5 -11.8 -0.5 93 0.4 WSW 54 69 29 37 - - 2.0
26/09:30pm 0.5 -11.8 -0.4 94 0.4 WSW 54 65 29 35 - - 2.0
26/09:00pm 0.5 -10.7 -0.8 91 0.5 WSW 48 61 26 33 - - 2.0
26/08:30pm 0.9 -10.6 -0.2 92 0.4 WSW 50 63 27 34 - - 2.0
26/08:00pm 1.1 -11.6 -0.2 91 0.5 WSW 56 70 30 38 - - 2.0
26/07:30pm 1.7 -8.3 0.7 93 0.4 WSW 43 52 23 28 - - 2.0
26/07:00pm 2.1 -5.8 1.1 93 0.4 WSW 32 44 17 24 - - 2.0
26/06:30pm 2.2 -6.6 1.3 94 0.4 WSW 37 48 20 26 - - 2.0
26/06:00pm 2.7 -5.7 1.8 94 0.4 WSW 35 48 19 26 - - 2.0
26/05:30pm 2.8 -5.5 1.9 94 0.4 WSW 35 56 19 30 - - 2.0
26/05:27pm 3.1 -5.6 2.2 94 0.4 WSW 37 56 20 30 - - 2.0
26/05:00pm 3.0 -4.6 2.6 97 0.2 WSW 32 41 17 22 - - 2.0
26/04:30pm 3.2 -5.4 2.6 96 0.3 WSW 37 50 20 27 - - 2.0
26/04:00pm 3.4 -5.9 3.0 97 0.2 WSW 41 52 22 28 - - 2.0
26/03:30pm 3.3 -6.0 2.9 97 0.2 WSW 41 52 22 28 - - 2.0
26/03:00pm 4.7 -5.4 4.0 95 0.3 WSW 46 59 25 32 - - 1.8
26/02:32pm 2.5 -7.0 1.9 96 0.3 WSW 41 61 22 33 - - 1.6
26/02:30pm 2.6 -6.5 2.0 96 0.3 WSW 39 54 21 29 - - 1.6
26/02:00pm 2.8 -4.5 2.2 96 0.3 WSW 30 39 16 21 - - 1.6
26/01:30pm 4.6 -4.3 2.8 88 0.8 WSW 39 50 21 27 - - 1.0
26/01:00pm 3.2 -6.1 2.8 97 0.2 WSW 41 54 22 29 - - 1.0
26/12:30pm 3.2 -6.7 2.8 97 0.2 WSW 44 59 24 32 - - 1.0
26/12:04pm 2.5 -6.6 2.1 97 0.2 WSW 39 57 21 31 - - 1.0
26/12:00pm 2.5 -6.9 2.1 97 0.2 WSW 41 52 22 28 - - 1.0
26/11:35am 1.2 -7.3 0.6 96 0.2 WSW 35 57 19 31 - - 0.8
26/11:30am 1.5 -6.4 0.9 96 0.2 WSW 32 46 17 25 - - 0.6
26/11:25am 2.3 -6.1 1.7 96 0.3 WSW 35 56 19 30 - - 0.4
26/11:00am 2.1 -7.0 1.7 97 0.2 WSW 39 54 21 29 - - 0.2
26/10:46am 1.8 -7.4 1.4 97 0.2 WSW 39 54 21 29 - - 0.2
26/10:30am 1.5 -4.9 0.9 96 0.2 WSW 24 33 13 18 - - 0.0
26/10:03am 1.5 -8.8 0.2 91 0.5 WSW 44 65 24 35 - - 0.0
26/10:00am 1.6 -8.5 0.3 91 0.5 WSW 43 56 23 30 - - 0.0
26/09:37am 1.7 -8.4 0.4 91 0.5 WSW 43 69 23 37 - - 0.0
26/09:30am 2.0 -8.3 0.4 89 0.6 WSW 44 59 24 32 - - 0.0
26/09:01am 2.3 -10.3 0.2 86 0.8 WSW 56 74 30 40 - - 0.0
26/09:00am 2.3 -10.5 0.2 86 0.8 WSW 57 74 31 40 - - 1.2
26/08:31am 1.7 -13.0 -0.2 87 0.8 WSW 67 85 36 46 - - 1.2
26/08:30am 1.8 -13.4 -0.4 85 0.9 WSW 69 85 37 46 - - 1.2
26/08:07am 1.2 -15.2 0.2 93 0.4 WSW 76 96 41 52 - - 1.2
26/08:00am 1.1 -15.3 0.2 94 0.4 WSW 76 91 41 49 - - 1.2
26/07:32am 0.7 -14.9 0.1 96 0.2 WSW 72 91 39 49 - - 1.2
26/07:30am 0.6 -14.7 0.0 96 0.2 WSW 70 87 38 47 - - 1.2
26/07:00am 0.8 -13.9 -0.1 94 0.4 WSW 67 82 36 44 - - 1.2
26/06:30am 0.6 -15.9 -0.7 91 0.5 WSW 76 95 41 51 - - 1.2
26/06:04am 0.5 -15.6 -0.5 93 0.4 WSW 74 95 40 51 - - 1.2
26/06:00am 0.5 -16.8 -0.8 91 0.5 W 80 95 43 51 - - 1.2
26/05:50am 0.3 -16.9 -0.3 96 0.2 WSW 80 91 43 49 - - 1.2
26/05:30am 0.8 -12.7 0.2 96 0.2 WSW 61 87 33 47 - - 1.2
26/05:00am 1.5 -10.6 1.1 97 0.2 W 54 80 29 43 - - 1.2
26/04:30am 2.1 -7.8 1.7 97 0.2 W 43 65 23 35 - - 1.2
26/04:00am 2.4 -8.0 2.1 98 0.1 W 46 72 25 39 - - 1.2
26/03:36am 2.7 -8.8 2.4 98 0.1 WSW 52 70 28 38 - - 1.2
26/03:30am 2.7 -9.2 2.4 98 0.1 WSW 54 67 29 36 - - 1.2
26/03:00am 3.1 -5.8 2.8 98 0.1 WSW 39 59 21 32 - - 0.8
26/02:30am 3.2 -6.7 2.8 97 0.2 W 44 63 24 34 - - 0.8
26/02:00am 3.2 -9.0 2.8 97 0.2 W 56 76 30 41 - - 0.6
26/01:30am 3.1 -11.8 2.4 95 0.3 W 70 98 38 53 - - 0.6
26/01:00am 2.9 -10.3 2.2 95 0.3 W 61 83 33 45 - - 0.6
26/12:36am 2.9 -10.7 2.3 96 0.3 W 63 95 34 51 - - 0.6
26/12:30am 2.6 -9.7 2.2 97 0.2 W 56 76 30 41 - - 0.6
26/12:00am 2.5 -9.8 1.9 96 0.3 W 56 76 30 41 - - 0.6
 
Date/Time
EDT
Tmp

°C
App
Tmp
°C
Dew
Point
°C
Rel
Hum
%
Delta-T

°C
Wind Press
QNH
hPa
Press
MSL
hPa
Rain
since
9 am
mm
Dir
 
Spd
km/h
Gust
km/h
Spd
kts
Gust
kts
25/11:30pm 2.5 -9.8 1.8 95 0.3 W 56 91 30 49 - - 0.6
25/11:00pm 2.0 -10.6 1.4 96 0.2 W 57 80 31 43 - - 0.6
25/10:34pm 2.2 -11.5 1.5 95 0.3 W 63 83 34 45 - - 0.6
25/10:30pm 2.1 -11.6 1.4 95 0.3 W 63 78 34 42 - - 0.6
25/10:00pm 2.0 -11.0 1.4 96 0.2 W 59 82 32 44 - - 0.6
25/09:30pm 1.8 -10.8 1.2 96 0.2 W 57 78 31 42 - - 0.6
25/09:06pm 1.6 -10.9 0.9 95 0.3 W 56 80 30 43 - - 0.6
25/09:00pm 1.5 -10.2 0.8 95 0.3 W 52 67 28 36 - - 0.6
25/08:30pm 1.4 -9.3 0.4 93 0.4 W 46 67 25 36 - - 0.6
25/08:03pm 1.4 -10.4 0.2 92 0.5 W 52 72 28 39 - - 0.6
25/08:00pm 1.4 -10.4 0.1 91 0.5 W 52 69 28 37 - - 0.6
25/07:30pm 1.5 -10.4 -0.4 87 0.8 W 52 69 28 37 - - 0.6
25/07:25pm 1.6 -9.5 -0.3 87 0.8 WSW 48 69 26 37 - - 0.6
25/07:19pm 1.4 -8.8 -0.2 89 0.6 W 43 50 23 27 - - 0.6
25/07:02pm 1.2 -12.5 -1.0 85 0.9 W 61 80 33 43 - - 0.6
25/07:00pm 1.2 -12.9 -0.9 86 0.8 W 63 82 34 44 - - 0.6
25/06:30pm 1.3 -12.7 -0.2 90 0.6 W 63 89 34 48 - - 0.6
25/06:15pm 1.6 -10.9 0.7 94 0.4 W 56 78 30 42 - - 0.6
25/06:00pm 2.3 -10.4 1.0 91 0.5 W 57 74 31 40 - - 0.6
25/05:30pm 3.0 -10.7 1.5 90 0.6 WSW 63 85 34 46 - - 0.6
25/05:00pm 2.4 -10.2 1.2 92 0.5 W 57 76 31 41 - - 0.6
25/04:30pm 2.8 -10.8 2.2 96 0.3 W 63 87 34 47 - - 0.6
25/04:00pm 4.6 -8.6 2.6 87 0.9 W 61 82 33 44 - - 0.0
25/03:33pm 4.5 -8.2 1.0 78 1.5 W 57 76 31 41 - - 0.0
25/03:30pm 5.0 -8.1 0.6 73 1.9 W 59 76 32 41 - - 0.0
25/03:00pm 4.8 -8.0 2.5 85 1.0 W 59 80 32 43 - - 0.0
25/02:36pm 5.7 -7.1 2.2 78 1.5 W 59 80 32 43 - - 0.0
25/02:30pm 5.4 -7.6 3.4 87 0.9 W 61 80 33 43 - - 0.0
25/02:00pm 5.3 -5.9 2.0 79 1.4 W 50 70 27 38 - - 0.0
25/01:39pm 5.2 -5.0 3.4 88 0.8 W 46 65 25 35 - - 0.0
25/01:30pm 5.0 -3.9 3.2 88 0.8 W 39 56 21 30 - - 0.0
25/01:00pm 5.0 -3.7 2.2 82 1.2 W 37 52 20 28 - - 0.0
25/12:32pm 5.1 -4.5 0.9 74 1.8 WSW 41 61 22 33 - - 0.0
25/12:30pm 5.6 -4.4 1.0 72 2.0 WSW 43 57 23 31 - - 0.0
25/12:01pm 5.0 -5.9 1.5 78 1.5 WSW 48 67 26 36 - - 0.0
25/12:00pm 5.0 -5.8 1.7 79 1.4 WSW 48 63 26 34 - - 0.0
25/11:34am 4.6 -7.4 1.6 81 1.3 WSW 54 74 29 40 - - 0.0
25/11:30am 5.3 -7.0 1.8 78 1.5 W 56 74 30 40 - - 0.0
25/11:04am 4.7 -10.7 1.6 80 1.3 WSW 72 93 39 50 - - 0.0
25/11:00am 4.3 -11.5 1.3 81 1.3 WSW 74 93 40 50 - - 0.0
25/10:31am 4.2 -12.0 1.6 83 1.1 WSW 76 95 41 51 - - 0.0
25/10:30am 4.1 -12.5 1.3 82 1.2 WSW 78 95 42 51 - - 0.0
25/10:00am 3.6 -13.1 0.7 81 1.2 WSW 78 102 42 55 - - 0.0
25/09:34am 3.4 -14.3 0.5 81 1.2 WSW 83 102 45 55 - - 0.0
25/09:30am 3.4 -14.7 0.3 80 1.3 WSW 85 102 46 55 - - 0.0
25/09:00am 2.8 -14.3 0.4 84 1.0 WSW 80 98 43 53 - - 4.2
25/08:31am 2.8 -13.9 0.4 84 1.0 WSW 78 96 42 52 - - 4.2
25/08:30am 2.7 -14.5 0.1 83 1.1 WSW 80 96 43 52 - - 4.2
25/08:04am 2.4 -15.8 -0.4 82 1.1 WSW 85 106 46 57 - - 4.2
25/08:00am 2.3 -15.5 0.0 85 0.9 WSW 83 102 45 55 - - 4.2
25/07:30am 2.2 -13.8 0.3 87 0.8 WSW 74 106 40 57 - - 4.2
25/07:01am 1.7 -13.2 1.0 95 0.3 W 69 89 37 48 - - 4.2
25/07:00am 1.8 -13.3 1.1 95 0.3 W 70 89 38 48 - - 4.2
25/06:30am 1.6 -14.7 1.0 96 0.2 WSW 76 98 41 53 - - 4.2
25/06:00am 1.4 -14.9 1.0 97 0.2 W 76 102 41 55 - - 4.2
25/05:30am 1.5 -15.9 0.8 95 0.3 WSW 82 111 44 60 - - 4.2
25/05:02am 1.6 -15.0 1.2 97 0.2 WSW 78 98 42 53 - - 4.2
25/05:00am 1.6 -15.0 1.2 97 0.2 WSW 78 95 42 51 - - 4.2
25/04:30am 1.7 -15.3 1.0 95 0.3 WSW 80 111 43 60 - - 4.2
25/04:00am 1.6 -14.7 0.9 95 0.3 W 76 102 41 55 - - 4.2
25/03:49am 1.6 -16.0 0.7 94 0.4 WSW 83 102 45 55 - - 4.2
25/03:46am 1.6 -16.8 1.0 96 0.2 WSW 87 102 47 55 - - 4.2
25/03:34am 1.6 -12.2 1.2 97 0.2 W 63 87 34 47 - - 4.2
25/03:30am 1.6 -12.2 1.2 97 0.2 WSW 63 76 34 41 - - 4.2
25/03:00am 1.8 -11.6 1.1 95 0.3 W 61 87 33 47 - - 4.2
25/02:56am 1.7 -10.9 1.1 96 0.2 W 57 87 31 47 - - 4.2
25/02:49am 1.7 -10.0 1.1 96 0.2 W 52 59 28 32 - - 4.2
25/02:30am 1.6 -14.0 0.7 94 0.4 W 72 93 39 50 - - 4.2
25/02:01am 1.5 -15.6 0.5 93 0.4 W 80 100 43 54 - - 4.2
25/02:00am 1.5 -15.2 0.5 93 0.4 W 78 91 42 49 - - 4.2
25/01:59am 1.6 -14.7 0.6 93 0.4 W 76 91 41 49 - - 4.2
25/01:43am 1.9 -18.7 0.3 89 0.6 W 98 117 53 63 - - 4.2
25/01:41am 2.0 -19.7 0.2 88 0.7 W 104 117 56 63 - - 4.2
25/01:30am 1.9 -15.9 -0.3 85 0.9 W 83 107 45 58 - - 4.2
25/01:00am 1.6 -14.4 0.0 89 0.6 W 74 96 40 52 - - 4.2
25/12:30am 1.8 -14.0 -1.1 81 1.1 W 72 100 39 54 - - 4.2
25/12:00am 1.4 -12.9 0.2 92 0.5 W 65 87 35 47 - - 4.2
 
Date/Time
EDT
Tmp

°C
App
Tmp
°C
Dew
Point
°C
Rel
Hum
%
Delta-T

°C
Wind Press
QNH
hPa
Press
MSL
hPa
Rain
since
9 am
mm
Dir
 
Spd
km/h
Gust
km/h
Spd
kts
Gust
kts
24/11:30pm 1.2 -13.1 0.0 92 0.5 W 65 87 35 47 - - 4.2
24/11:02pm 1.5 -12.4 0.5 93 0.4 W 63 95 34 51 - - 4.2
24/11:00pm 1.5 -12.4 0.3 92 0.5 W 63 82 34 44 - - 4.2
24/10:30pm 1.5 -12.3 -1.7 79 1.2 W 61 85 33 46 - - 4.2
24/10:03pm 1.9 -12.0 0.4 90 0.6 W 63 91 34 49 - - 4.2
24/10:00pm 1.8 -12.1 0.3 90 0.6 W 63 82 34 44 - - 4.2
24/09:30pm 1.9 -12.5 -0.7 83 1.0 W 65 89 35 48 - - 4.2
24/09:05pm 2.2 -11.9 -0.9 80 1.2 W 63 87 34 47 - - 4.2
24/09:00pm 2.2 -10.9 0.3 87 0.8 W 59 74 32 40 - - 4.2
24/08:30pm 3.3 -11.4 0.4 81 1.2 W 67 80 36 43 - - 4.2
24/08:00pm 3.8 -9.4 2.5 91 0.6 W 61 80 33 43 - - 4.2
24/07:40pm 4.2 -8.5 3.2 93 0.4 W 59 80 32 43 - - 4.2
24/07:30pm 4.5 -8.9 3.5 93 0.4 W 63 78 34 42 - - 4.2
24/07:05pm 4.6 -7.0 4.0 96 0.3 W 54 72 29 39 - - 4.2
24/07:00pm 4.9 -6.2 4.3 96 0.3 W 52 69 28 37 - - 4.2
24/06:30pm 6.2 -2.5 5.8 97 0.2 W 41 52 22 28 - - 4.0
24/06:00pm 6.6 0.0 6.2 97 0.2 W 30 44 16 24 - - 3.8
24/05:30pm 6.6 -1.3 6.2 97 0.2 W 37 48 20 26 - - 3.4
24/05:00pm 7.1 1.4 6.8 98 0.1 W 26 35 14 19 - - 3.2
24/04:30pm 7.2 0.8 6.9 98 0.1 W 30 39 16 21 - - 2.8
24/04:00pm 7.2 0.8 6.9 98 0.1 WNW 30 43 16 23 - - 2.4
24/03:30pm 7.1 0.1 6.8 98 0.1 NW 33 39 18 21 - - 0.6
24/03:00pm 7.3 -1.6 7.0 98 0.1 NW 43 54 23 29 - - 0.6
24/02:30pm 7.2 -2.3 6.9 98 0.1 NNW 46 61 25 33 - - 0.6
24/02:00pm 7.2 -1.3 6.8 97 0.2 NNW 41 52 22 28 - - 0.6

Latest Capital City Observations: Canberra | Sydney | Melbourne | Brisbane | Adelaide | Perth | Hobart | Darwin

Other Formats:

Comma delimited format used in spreadsheet applications
http://www.bom.gov.au/fwo/IDT60901/IDT60901.95979.axf

JavaScript Object Notation format (JSON) in row-major order
http://www.bom.gov.au/fwo/IDT60901/IDT60901.95979.json